sensor_id;sensor_type;location;lat;lon;timestamp;P1;durP1;ratioP1;P2;durP2;ratioP2
37781;SDS011;23621;50.878;4.584;2023-08-06T00:01:01;4.60;;;1.52;;
37781;SDS011;23621;50.878;4.584;2023-08-06T00:03:49;3.60;;;1.88;;
37781;SDS011;23621;50.878;4.584;2023-08-06T00:06:36;4.30;;;1.40;;
37781;SDS011;23621;50.878;4.584;2023-08-06T00:09:24;2.63;;;1.50;;
37781;SDS011;23621;50.878;4.584;2023-08-06T00:12:11;4.72;;;1.63;;
37781;SDS011;23621;50.878;4.584;2023-08-06T00:14:58;2.85;;;1.40;;
37781;SDS011;23621;50.878;4.584;2023-08-06T00:17:45;3.67;;;1.80;;
37781;SDS011;23621;50.878;4.584;2023-08-06T00:20:32;2.17;;;1.40;;
37781;SDS011;23621;50.878;4.584;2023-08-06T00:23:20;3.53;;;1.77;;
37781;SDS011;23621;50.878;4.584;2023-08-06T00:26:08;1.48;;;1.38;;
37781;SDS011;23621;50.878;4.584;2023-08-06T00:28:56;3.03;;;1.52;;
37781;SDS011;23621;50.878;4.584;2023-08-06T00:31:43;3.15;;;1.38;;
37781;SDS011;23621;50.878;4.584;2023-08-06T00:34:30;3.72;;;1.60;;
37781;SDS011;23621;50.878;4.584;2023-08-06T00:37:17;2.72;;;1.70;;
37781;SDS011;23621;50.878;4.584;2023-08-06T00:40:05;2.90;;;1.55;;
37781;SDS011;23621;50.878;4.584;2023-08-06T00:42:53;3.13;;;1.50;;
37781;SDS011;23621;50.878;4.584;2023-08-06T00:45:40;4.55;;;1.73;;
37781;SDS011;23621;50.878;4.584;2023-08-06T00:48:28;2.33;;;1.63;;
37781;SDS011;23621;50.878;4.584;2023-08-06T00:51:15;3.20;;;1.50;;
37781;SDS011;23621;50.878;4.584;2023-08-06T00:54:02;3.67;;;1.55;;
37781;SDS011;23621;50.878;4.584;2023-08-06T00:56:50;4.25;;;2.20;;
37781;SDS011;23621;50.878;4.584;2023-08-06T00:59:37;5.22;;;2.30;;
37781;SDS011;23621;50.878;4.584;2023-08-06T01:02:24;2.85;;;1.88;;
37781;SDS011;23621;50.878;4.584;2023-08-06T01:05:12;4.90;;;2.17;;
37781;SDS011;23621;50.878;4.584;2023-08-06T01:08:15;3.90;;;2.30;;
37781;SDS011;23621;50.878;4.584;2023-08-06T01:14:32;4.97;;;2.33;;
37781;SDS011;23621;50.878;4.584;2023-08-06T01:17:40;4.57;;;2.50;;
37781;SDS011;23621;50.878;4.584;2023-08-06T01:20:29;3.92;;;2.60;;
37781;SDS011;23621;50.878;4.584;2023-08-06T01:23:17;6.05;;;2.88;;
37781;SDS011;23621;50.878;4.584;2023-08-06T01:31:51;5.75;;;3.15;;
37781;SDS011;23621;50.878;4.584;2023-08-06T01:34:41;6.78;;;3.10;;
37781;SDS011;23621;50.878;4.584;2023-08-06T01:37:31;5.72;;;3.17;;
37781;SDS011;23621;50.878;4.584;2023-08-06T01:40:19;4.60;;;3.50;;
37781;SDS011;23621;50.878;4.584;2023-08-06T01:43:06;5.28;;;3.20;;
37781;SDS011;23621;50.878;4.584;2023-08-06T01:45:53;3.83;;;3.40;;
37781;SDS011;23621;50.878;4.584;2023-08-06T01:48:41;6.43;;;3.63;;
37781;SDS011;23621;50.878;4.584;2023-08-06T01:51:28;5.53;;;4.07;;
37781;SDS011;23621;50.878;4.584;2023-08-06T01:54:15;4.40;;;3.60;;
37781;SDS011;23621;50.878;4.584;2023-08-06T01:57:02;4.80;;;4.20;;
37781;SDS011;23621;50.878;4.584;2023-08-06T01:59:49;6.72;;;4.28;;
37781;SDS011;23621;50.878;4.584;2023-08-06T02:02:37;5.75;;;4.22;;
37781;SDS011;23621;50.878;4.584;2023-08-06T02:05:24;6.63;;;4.68;;
37781;SDS011;23621;50.878;4.584;2023-08-06T02:08:11;8.45;;;4.45;;
37781;SDS011;23621;50.878;4.584;2023-08-06T02:10:58;5.80;;;4.60;;
37781;SDS011;23621;50.878;4.584;2023-08-06T02:13:46;5.25;;;3.90;;
37781;SDS011;23621;50.878;4.584;2023-08-06T02:16:33;7.05;;;4.50;;
37781;SDS011;23621;50.878;4.584;2023-08-06T02:19:20;5.95;;;4.10;;
37781;SDS011;23621;50.878;4.584;2023-08-06T02:22:07;7.60;;;4.65;;
37781;SDS011;23621;50.878;4.584;2023-08-06T02:24:55;6.53;;;5.00;;
37781;SDS011;23621;50.878;4.584;2023-08-06T02:27:42;5.13;;;4.20;;
37781;SDS011;23621;50.878;4.584;2023-08-06T02:30:29;5.93;;;4.22;;
37781;SDS011;23621;50.878;4.584;2023-08-06T02:33:17;6.18;;;4.57;;
37781;SDS011;23621;50.878;4.584;2023-08-06T02:36:04;6.20;;;4.32;;
37781;SDS011;23621;50.878;4.584;2023-08-06T02:38:51;7.43;;;4.50;;
37781;SDS011;23621;50.878;4.584;2023-08-06T02:41:38;5.88;;;4.30;;
37781;SDS011;23621;50.878;4.584;2023-08-06T02:44:28;10.20;;;4.85;;
37781;SDS011;23621;50.878;4.584;2023-08-06T02:47:16;9.55;;;5.13;;
37781;SDS011;23621;50.878;4.584;2023-08-06T02:50:03;5.90;;;4.38;;
37781;SDS011;23621;50.878;4.584;2023-08-06T02:52:50;5.57;;;4.05;;
37781;SDS011;23621;50.878;4.584;2023-08-06T02:55:37;6.80;;;4.63;;
37781;SDS011;23621;50.878;4.584;2023-08-06T02:58:31;8.15;;;4.50;;
37781;SDS011;23621;50.878;4.584;2023-08-06T03:01:18;6.72;;;3.95;;
37781;SDS011;23621;50.878;4.584;2023-08-06T03:04:06;7.03;;;4.18;;
37781;SDS011;23621;50.878;4.584;2023-08-06T03:06:53;3.92;;;3.30;;
37781;SDS011;23621;50.878;4.584;2023-08-06T03:09:40;6.32;;;3.55;;
37781;SDS011;23621;50.878;4.584;2023-08-06T03:12:27;6.50;;;3.83;;
37781;SDS011;23621;50.878;4.584;2023-08-06T03:15:15;8.65;;;3.60;;
37781;SDS011;23621;50.878;4.584;2023-08-06T03:18:02;6.55;;;3.72;;
37781;SDS011;23621;50.878;4.584;2023-08-06T03:20:49;5.70;;;3.80;;
37781;SDS011;23621;50.878;4.584;2023-08-06T03:23:36;6.13;;;3.80;;
37781;SDS011;23621;50.878;4.584;2023-08-06T03:26:23;6.18;;;3.90;;
37781;SDS011;23621;50.878;4.584;2023-08-06T03:29:11;10.25;;;4.60;;
37781;SDS011;23621;50.878;4.584;2023-08-06T03:31:58;7.72;;;4.70;;
37781;SDS011;23621;50.878;4.584;2023-08-06T03:34:45;9.20;;;4.82;;
37781;SDS011;23621;50.878;4.584;2023-08-06T03:37:32;7.28;;;5.10;;
37781;SDS011;23621;50.878;4.584;2023-08-06T03:40:19;14.77;;;6.20;;
37781;SDS011;23621;50.878;4.584;2023-08-06T03:43:07;8.88;;;6.53;;
37781;SDS011;23621;50.878;4.584;2023-08-06T03:45:54;8.98;;;6.60;;
37781;SDS011;23621;50.878;4.584;2023-08-06T03:48:41;14.85;;;7.95;;
37781;SDS011;23621;50.878;4.584;2023-08-06T03:51:28;9.55;;;7.78;;
37781;SDS011;23621;50.878;4.584;2023-08-06T03:54:15;12.10;;;8.40;;
37781;SDS011;23621;50.878;4.584;2023-08-06T03:57:03;11.70;;;9.55;;
37781;SDS011;23621;50.878;4.584;2023-08-06T03:59:50;14.88;;;10.15;;
37781;SDS011;23621;50.878;4.584;2023-08-06T04:02:41;13.82;;;10.40;;
37781;SDS011;23621;50.878;4.584;2023-08-06T04:05:30;16.50;;;11.35;;
37781;SDS011;23621;50.878;4.584;2023-08-06T04:08:18;16.85;;;11.88;;
37781;SDS011;23621;50.878;4.584;2023-08-06T04:11:06;15.77;;;11.23;;
37781;SDS011;23621;50.878;4.584;2023-08-06T04:13:53;14.18;;;11.35;;
37781;SDS011;23621;50.878;4.584;2023-08-06T04:16:41;16.95;;;11.48;;
37781;SDS011;23621;50.878;4.584;2023-08-06T04:19:29;14.25;;;10.40;;
37781;SDS011;23621;50.878;4.584;2023-08-06T04:22:16;11.52;;;9.40;;
37781;SDS011;23621;50.878;4.584;2023-08-06T04:25:03;9.57;;;8.25;;
37781;SDS011;23621;50.878;4.584;2023-08-06T04:27:51;7.10;;;5.20;;
37781;SDS011;23621;50.878;4.584;2023-08-06T04:30:38;4.00;;;3.58;;
37781;SDS011;23621;50.878;4.584;2023-08-06T04:33:25;3.97;;;2.35;;
37781;SDS011;23621;50.878;4.584;2023-08-06T04:36:12;2.60;;;1.55;;
37781;SDS011;23621;50.878;4.584;2023-08-06T04:38:59;1.23;;;1.13;;
37781;SDS011;23621;50.878;4.584;2023-08-06T04:41:47;1.15;;;1.00;;
37781;SDS011;23621;50.878;4.584;2023-08-06T04:44:34;2.53;;;1.00;;
37781;SDS011;23621;50.878;4.584;2023-08-06T04:47:21;2.50;;;1.20;;
37781;SDS011;23621;50.878;4.584;2023-08-06T04:50:08;2.75;;;1.33;;
37781;SDS011;23621;50.878;4.584;2023-08-06T04:52:56;2.45;;;1.60;;
37781;SDS011;23621;50.878;4.584;2023-08-06T04:55:43;2.95;;;2.00;;
37781;SDS011;23621;50.878;4.584;2023-08-06T04:58:30;3.20;;;2.75;;
37781;SDS011;23621;50.878;4.584;2023-08-06T05:01:17;5.40;;;2.47;;
37781;SDS011;23621;50.878;4.584;2023-08-06T05:04:05;5.68;;;3.13;;
37781;SDS011;23621;50.878;4.584;2023-08-06T05:06:52;5.70;;;3.53;;
37781;SDS011;23621;50.878;4.584;2023-08-06T05:09:39;4.43;;;2.97;;
37781;SDS011;23621;50.878;4.584;2023-08-06T05:12:26;5.57;;;3.70;;
37781;SDS011;23621;50.878;4.584;2023-08-06T05:15:14;3.88;;;3.25;;
37781;SDS011;23621;50.878;4.584;2023-08-06T05:18:01;7.35;;;3.90;;
37781;SDS011;23621;50.878;4.584;2023-08-06T05:20:48;4.70;;;3.13;;
37781;SDS011;23621;50.878;4.584;2023-08-06T05:23:36;5.18;;;3.75;;
37781;SDS011;23621;50.878;4.584;2023-08-06T05:26:23;5.72;;;4.03;;
37781;SDS011;23621;50.878;4.584;2023-08-06T05:29:10;7.10;;;3.70;;
37781;SDS011;23621;50.878;4.584;2023-08-06T05:31:57;5.70;;;3.63;;
37781;SDS011;23621;50.878;4.584;2023-08-06T05:34:44;3.90;;;2.72;;
37781;SDS011;23621;50.878;4.584;2023-08-06T05:37:32;4.22;;;3.00;;
37781;SDS011;23621;50.878;4.584;2023-08-06T05:40:19;5.53;;;3.30;;
37781;SDS011;23621;50.878;4.584;2023-08-06T05:43:06;4.32;;;3.10;;
37781;SDS011;23621;50.878;4.584;2023-08-06T05:45:53;7.03;;;2.88;;
37781;SDS011;23621;50.878;4.584;2023-08-06T05:48:40;6.90;;;2.78;;
37781;SDS011;23621;50.878;4.584;2023-08-06T05:51:28;3.63;;;2.90;;
37781;SDS011;23621;50.878;4.584;2023-08-06T05:54:15;3.30;;;2.40;;
37781;SDS011;23621;50.878;4.584;2023-08-06T05:57:02;5.22;;;2.90;;
37781;SDS011;23621;50.878;4.584;2023-08-06T05:59:50;4.88;;;2.75;;
37781;SDS011;23621;50.878;4.584;2023-08-06T06:02:37;6.50;;;2.95;;
37781;SDS011;23621;50.878;4.584;2023-08-06T06:05:24;5.78;;;3.30;;
37781;SDS011;23621;50.878;4.584;2023-08-06T06:08:11;6.25;;;3.15;;
37781;SDS011;23621;50.878;4.584;2023-08-06T06:10:59;6.75;;;3.00;;
37781;SDS011;23621;50.878;4.584;2023-08-06T06:13:46;7.60;;;3.45;;
37781;SDS011;23621;50.878;4.584;2023-08-06T06:16:33;6.75;;;3.38;;
37781;SDS011;23621;50.878;4.584;2023-08-06T06:19:21;6.68;;;3.13;;
37781;SDS011;23621;50.878;4.584;2023-08-06T06:22:08;6.72;;;3.10;;
37781;SDS011;23621;50.878;4.584;2023-08-06T06:24:55;8.48;;;3.42;;
37781;SDS011;23621;50.878;4.584;2023-08-06T06:27:43;5.75;;;3.25;;
37781;SDS011;23621;50.878;4.584;2023-08-06T06:30:30;5.70;;;2.65;;
37781;SDS011;23621;50.878;4.584;2023-08-06T06:33:17;9.15;;;3.13;;
37781;SDS011;23621;50.878;4.584;2023-08-06T06:36:04;6.25;;;3.20;;
37781;SDS011;23621;50.878;4.584;2023-08-06T06:38:54;5.15;;;3.30;;
37781;SDS011;23621;50.878;4.584;2023-08-06T06:41:41;8.38;;;3.50;;
37781;SDS011;23621;50.878;4.584;2023-08-06T06:44:28;5.63;;;3.15;;
37781;SDS011;23621;50.878;4.584;2023-08-06T06:47:15;7.10;;;3.20;;
37781;SDS011;23621;50.878;4.584;2023-08-06T06:50:03;7.68;;;3.03;;
37781;SDS011;23621;50.878;4.584;2023-08-06T06:52:51;7.00;;;3.25;;
37781;SDS011;23621;50.878;4.584;2023-08-06T06:55:38;9.43;;;4.55;;
37781;SDS011;23621;50.878;4.584;2023-08-06T06:58:25;6.10;;;3.10;;
37781;SDS011;23621;50.878;4.584;2023-08-06T07:01:12;6.57;;;3.60;;
37781;SDS011;23621;50.878;4.584;2023-08-06T07:03:59;4.53;;;3.03;;
37781;SDS011;23621;50.878;4.584;2023-08-06T07:06:51;10.02;;;3.97;;
37781;SDS011;23621;50.878;4.584;2023-08-06T07:09:39;8.20;;;3.28;;
37781;SDS011;23621;50.878;4.584;2023-08-06T07:12:26;10.60;;;3.70;;
37781;SDS011;23621;50.878;4.584;2023-08-06T07:15:13;8.73;;;3.50;;
37781;SDS011;23621;50.878;4.584;2023-08-06T07:18:01;7.95;;;3.35;;
37781;SDS011;23621;50.878;4.584;2023-08-06T07:20:51;5.10;;;3.28;;
37781;SDS011;23621;50.878;4.584;2023-08-06T07:23:39;6.28;;;3.38;;
37781;SDS011;23621;50.878;4.584;2023-08-06T07:26:27;6.07;;;3.28;;
37781;SDS011;23621;50.878;4.584;2023-08-06T07:29:14;6.13;;;3.70;;
37781;SDS011;23621;50.878;4.584;2023-08-06T07:32:06;5.18;;;3.00;;
37781;SDS011;23621;50.878;4.584;2023-08-06T07:34:54;10.60;;;3.75;;
37781;SDS011;23621;50.878;4.584;2023-08-06T07:37:46;8.40;;;3.15;;
37781;SDS011;23621;50.878;4.584;2023-08-06T07:40:35;7.78;;;2.70;;
37781;SDS011;23621;50.878;4.584;2023-08-06T07:43:23;6.10;;;2.50;;
37781;SDS011;23621;50.878;4.584;2023-08-06T07:46:10;7.15;;;2.45;;
37781;SDS011;23621;50.878;4.584;2023-08-06T07:49:00;6.53;;;1.90;;
37781;SDS011;23621;50.878;4.584;2023-08-06T07:51:47;7.93;;;1.98;;
37781;SDS011;23621;50.878;4.584;2023-08-06T07:54:34;8.27;;;1.83;;
37781;SDS011;23621;50.878;4.584;2023-08-06T07:57:21;7.15;;;2.05;;
37781;SDS011;23621;50.878;4.584;2023-08-06T08:00:08;12.48;;;2.05;;
37781;SDS011;23621;50.878;4.584;2023-08-06T08:02:56;4.72;;;1.98;;
37781;SDS011;23621;50.878;4.584;2023-08-06T08:05:43;7.97;;;2.47;;
37781;SDS011;23621;50.878;4.584;2023-08-06T08:08:31;7.60;;;2.45;;
37781;SDS011;23621;50.878;4.584;2023-08-06T08:11:18;8.35;;;2.28;;
37781;SDS011;23621;50.878;4.584;2023-08-06T08:14:07;7.90;;;2.15;;
37781;SDS011;23621;50.878;4.584;2023-08-06T08:16:54;5.90;;;2.30;;
37781;SDS011;23621;50.878;4.584;2023-08-06T08:19:42;9.82;;;2.33;;
37781;SDS011;23621;50.878;4.584;2023-08-06T08:22:30;6.85;;;2.40;;
37781;SDS011;23621;50.878;4.584;2023-08-06T08:25:17;6.70;;;2.45;;
37781;SDS011;23621;50.878;4.584;2023-08-06T08:28:04;6.72;;;2.15;;
37781;SDS011;23621;50.878;4.584;2023-08-06T08:30:51;6.38;;;2.15;;
37781;SDS011;23621;50.878;4.584;2023-08-06T08:33:39;6.13;;;2.03;;
37781;SDS011;23621;50.878;4.584;2023-08-06T08:36:26;6.50;;;2.22;;
37781;SDS011;23621;50.878;4.584;2023-08-06T08:39:13;4.43;;;1.83;;
37781;SDS011;23621;50.878;4.584;2023-08-06T08:42:01;7.47;;;2.05;;
37781;SDS011;23621;50.878;4.584;2023-08-06T08:44:50;5.05;;;1.80;;
37781;SDS011;23621;50.878;4.584;2023-08-06T08:47:39;4.60;;;1.92;;
37781;SDS011;23621;50.878;4.584;2023-08-06T08:50:28;3.75;;;1.52;;
37781;SDS011;23621;50.878;4.584;2023-08-06T08:53:16;6.00;;;1.85;;
37781;SDS011;23621;50.878;4.584;2023-08-06T08:56:04;4.80;;;2.22;;
37781;SDS011;23621;50.878;4.584;2023-08-06T08:58:52;5.93;;;2.00;;
37781;SDS011;23621;50.878;4.584;2023-08-06T09:01:42;8.98;;;2.08;;
37781;SDS011;23621;50.878;4.584;2023-08-06T09:04:32;8.35;;;2.10;;
37781;SDS011;23621;50.878;4.584;2023-08-06T09:07:20;5.82;;;1.80;;
37781;SDS011;23621;50.878;4.584;2023-08-06T09:10:10;6.43;;;2.05;;
37781;SDS011;23621;50.878;4.584;2023-08-06T09:13:00;5.03;;;1.83;;
37781;SDS011;23621;50.878;4.584;2023-08-06T09:15:48;6.53;;;2.10;;
37781;SDS011;23621;50.878;4.584;2023-08-06T09:18:37;10.00;;;2.47;;
37781;SDS011;23621;50.878;4.584;2023-08-06T09:21:27;7.30;;;2.33;;
37781;SDS011;23621;50.878;4.584;2023-08-06T09:24:15;5.88;;;2.13;;
37781;SDS011;23621;50.878;4.584;2023-08-06T09:27:02;13.30;;;2.72;;
37781;SDS011;23621;50.878;4.584;2023-08-06T09:29:50;4.47;;;2.42;;
37781;SDS011;23621;50.878;4.584;2023-08-06T09:32:46;5.60;;;2.05;;
37781;SDS011;23621;50.878;4.584;2023-08-06T09:35:34;8.65;;;2.00;;
37781;SDS011;23621;50.878;4.584;2023-08-06T09:38:22;6.95;;;2.20;;
37781;SDS011;23621;50.878;4.584;2023-08-06T09:41:09;6.60;;;2.55;;
37781;SDS011;23621;50.878;4.584;2023-08-06T09:43:56;9.07;;;2.17;;
37781;SDS011;23621;50.878;4.584;2023-08-06T09:46:48;5.63;;;1.83;;
37781;SDS011;23621;50.878;4.584;2023-08-06T09:49:40;7.53;;;1.85;;
37781;SDS011;23621;50.878;4.584;2023-08-06T09:52:32;6.22;;;2.00;;
37781;SDS011;23621;50.878;4.584;2023-08-06T09:55:19;7.07;;;2.08;;
37781;SDS011;23621;50.878;4.584;2023-08-06T09:58:08;6.05;;;1.83;;
37781;SDS011;23621;50.878;4.584;2023-08-06T10:00:56;6.13;;;2.10;;
37781;SDS011;23621;50.878;4.584;2023-08-06T10:03:43;6.13;;;2.20;;
37781;SDS011;23621;50.878;4.584;2023-08-06T10:06:34;7.80;;;2.03;;
37781;SDS011;23621;50.878;4.584;2023-08-06T10:09:04;4.10;;;2.10;;
37781;SDS011;23621;50.878;4.584;2023-08-06T10:11:31;3.95;;;1.80;;
37781;SDS011;23621;50.878;4.584;2023-08-06T10:14:41;4.65;;;2.13;;
37781;SDS011;23621;50.878;4.584;2023-08-06T10:16:51;5.93;;;2.10;;
37781;SDS011;23621;50.878;4.584;2023-08-06T10:19:18;5.68;;;2.05;;
37781;SDS011;23621;50.878;4.584;2023-08-06T10:24:59;6.47;;;2.40;;
37781;SDS011;23621;50.878;4.584;2023-08-06T10:27:34;6.22;;;2.10;;
37781;SDS011;23621;50.878;4.584;2023-08-06T10:30:29;6.32;;;2.00;;
37781;SDS011;23621;50.878;4.584;2023-08-06T10:33:19;5.30;;;2.05;;
37781;SDS011;23621;50.878;4.584;2023-08-06T10:35:47;4.53;;;1.88;;
37781;SDS011;23621;50.878;4.584;2023-08-06T10:38:20;5.88;;;2.10;;
37781;SDS011;23621;50.878;4.584;2023-08-06T10:40:49;6.80;;;2.55;;
37781;SDS011;23621;50.878;4.584;2023-08-06T10:43:26;6.70;;;2.17;;
37781;SDS011;23621;50.878;4.584;2023-08-06T10:45:58;5.47;;;2.20;;
37781;SDS011;23621;50.878;4.584;2023-08-06T10:48:41;5.38;;;1.70;;
37781;SDS011;23621;50.878;4.584;2023-08-06T10:51:12;7.43;;;2.35;;
37781;SDS011;23621;50.878;4.584;2023-08-06T10:53:46;5.10;;;1.77;;
37781;SDS011;23621;50.878;4.584;2023-08-06T10:56:18;3.85;;;1.63;;
37781;SDS011;23621;50.878;4.584;2023-08-06T10:58:46;4.40;;;1.90;;
37781;SDS011;23621;50.878;4.584;2023-08-06T11:01:14;5.72;;;2.00;;
37781;SDS011;23621;50.878;4.584;2023-08-06T11:03:44;6.72;;;2.35;;
37781;SDS011;23621;50.878;4.584;2023-08-06T11:06:19;5.60;;;1.70;;
37781;SDS011;23621;50.878;4.584;2023-08-06T11:08:47;4.50;;;2.15;;
37781;SDS011;23621;50.878;4.584;2023-08-06T11:11:22;5.78;;;2.13;;
37781;SDS011;23621;50.878;4.584;2023-08-06T11:13:50;6.82;;;2.35;;
37781;SDS011;23621;50.878;4.584;2023-08-06T11:16:18;6.13;;;2.17;;
37781;SDS011;23621;50.878;4.584;2023-08-06T11:18:51;5.22;;;2.00;;
37781;SDS011;23621;50.878;4.584;2023-08-06T11:21:19;9.48;;;2.53;;
37781;SDS011;23621;50.878;4.584;2023-08-06T11:23:46;7.18;;;2.42;;
37781;SDS011;23621;50.878;4.584;2023-08-06T11:26:20;7.07;;;2.83;;
37781;SDS011;23621;50.878;4.584;2023-08-06T11:28:49;8.90;;;2.97;;
37781;SDS011;23621;50.878;4.584;2023-08-06T11:31:22;8.27;;;2.58;;
37781;SDS011;23621;50.878;4.584;2023-08-06T11:33:53;7.90;;;2.67;;
37781;SDS011;23621;50.878;4.584;2023-08-06T11:36:30;7.25;;;2.78;;
37781;SDS011;23621;50.878;4.584;2023-08-06T11:39:01;4.30;;;2.10;;
37781;SDS011;23621;50.878;4.584;2023-08-06T11:41:29;4.72;;;2.10;;
37781;SDS011;23621;50.878;4.584;2023-08-06T11:43:57;5.25;;;2.53;;
37781;SDS011;23621;50.878;4.584;2023-08-06T11:46:24;6.93;;;2.78;;
37781;SDS011;23621;50.878;4.584;2023-08-06T11:48:52;7.18;;;2.20;;
37781;SDS011;23621;50.878;4.584;2023-08-06T11:51:23;6.05;;;2.10;;
37781;SDS011;23621;50.878;4.584;2023-08-06T11:53:55;3.67;;;2.15;;
37781;SDS011;23621;50.878;4.584;2023-08-06T11:56:24;5.57;;;1.88;;
37781;SDS011;23621;50.878;4.584;2023-08-06T11:58:53;2.72;;;1.40;;
37781;SDS011;23621;50.878;4.584;2023-08-06T12:01:21;5.57;;;2.05;;
37781;SDS011;23621;50.878;4.584;2023-08-06T12:03:48;5.22;;;1.95;;
37781;SDS011;23621;50.878;4.584;2023-08-06T12:06:15;6.05;;;2.13;;
37781;SDS011;23621;50.878;4.584;2023-08-06T12:08:42;12.55;;;1.98;;
37781;SDS011;23621;50.878;4.584;2023-08-06T12:11:09;4.90;;;1.90;;
37781;SDS011;23621;50.878;4.584;2023-08-06T12:13:36;4.03;;;2.00;;
37781;SDS011;23621;50.878;4.584;2023-08-06T12:16:21;3.60;;;1.77;;
37781;SDS011;23621;50.878;4.584;2023-08-06T12:18:50;5.03;;;1.88;;
37781;SDS011;23621;50.878;4.584;2023-08-06T12:21:17;4.60;;;2.05;;
37781;SDS011;23621;50.878;4.584;2023-08-06T12:24:02;4.63;;;2.30;;
37781;SDS011;23621;50.878;4.584;2023-08-06T12:26:29;4.53;;;2.08;;
37781;SDS011;23621;50.878;4.584;2023-08-06T12:28:56;5.78;;;2.28;;
37781;SDS011;23621;50.878;4.584;2023-08-06T12:31:23;6.13;;;2.20;;
37781;SDS011;23621;50.878;4.584;2023-08-06T12:33:50;5.05;;;2.22;;
37781;SDS011;23621;50.878;4.584;2023-08-06T12:36:23;5.82;;;2.30;;
37781;SDS011;23621;50.878;4.584;2023-08-06T12:38:50;8.13;;;2.70;;
37781;SDS011;23621;50.878;4.584;2023-08-06T12:41:17;5.57;;;2.28;;
37781;SDS011;23621;50.878;4.584;2023-08-06T12:43:44;7.97;;;2.25;;
37781;SDS011;23621;50.878;4.584;2023-08-06T12:46:11;8.50;;;2.58;;
37781;SDS011;23621;50.878;4.584;2023-08-06T12:48:39;4.97;;;2.33;;
37781;SDS011;23621;50.878;4.584;2023-08-06T12:51:06;8.30;;;2.20;;
37781;SDS011;23621;50.878;4.584;2023-08-06T12:53:33;6.80;;;1.90;;
37781;SDS011;23621;50.878;4.584;2023-08-06T12:56:00;6.80;;;2.40;;
37781;SDS011;23621;50.878;4.584;2023-08-06T12:58:27;6.15;;;2.20;;
37781;SDS011;23621;50.878;4.584;2023-08-06T13:00:54;7.38;;;1.90;;
37781;SDS011;23621;50.878;4.584;2023-08-06T13:03:21;5.78;;;1.98;;
37781;SDS011;23621;50.878;4.584;2023-08-06T13:05:48;4.60;;;2.38;;
37781;SDS011;23621;50.878;4.584;2023-08-06T13:08:15;6.57;;;1.88;;
37781;SDS011;23621;50.878;4.584;2023-08-06T13:10:43;7.35;;;2.13;;
37781;SDS011;23621;50.878;4.584;2023-08-06T13:13:10;6.47;;;2.30;;
37781;SDS011;23621;50.878;4.584;2023-08-06T13:15:37;5.53;;;2.33;;
37781;SDS011;23621;50.878;4.584;2023-08-06T13:18:04;7.03;;;2.00;;
37781;SDS011;23621;50.878;4.584;2023-08-06T13:20:31;5.28;;;2.40;;
37781;SDS011;23621;50.878;4.584;2023-08-06T13:22:58;6.40;;;2.25;;
37781;SDS011;23621;50.878;4.584;2023-08-06T13:25:27;8.07;;;2.15;;
37781;SDS011;23621;50.878;4.584;2023-08-06T13:27:57;5.80;;;2.25;;
37781;SDS011;23621;50.878;4.584;2023-08-06T13:30:24;7.95;;;2.15;;
37781;SDS011;23621;50.878;4.584;2023-08-06T13:32:50;7.90;;;1.95;;
37781;SDS011;23621;50.878;4.584;2023-08-06T13:35:17;8.43;;;1.95;;
37781;SDS011;23621;50.878;4.584;2023-08-06T13:37:44;6.47;;;2.25;;
37781;SDS011;23621;50.878;4.584;2023-08-06T13:40:13;4.72;;;1.90;;
37781;SDS011;23621;50.878;4.584;2023-08-06T13:42:39;5.93;;;1.90;;
37781;SDS011;23621;50.878;4.584;2023-08-06T13:45:06;4.93;;;1.73;;
37781;SDS011;23621;50.878;4.584;2023-08-06T13:47:34;5.43;;;2.20;;
37781;SDS011;23621;50.878;4.584;2023-08-06T13:50:02;8.20;;;2.00;;
37781;SDS011;23621;50.878;4.584;2023-08-06T13:52:29;9.57;;;2.30;;
37781;SDS011;23621;50.878;4.584;2023-08-06T13:54:56;5.72;;;2.20;;
37781;SDS011;23621;50.878;4.584;2023-08-06T13:57:23;6.18;;;2.03;;
37781;SDS011;23621;50.878;4.584;2023-08-06T13:59:50;4.85;;;1.90;;
37781;SDS011;23621;50.878;4.584;2023-08-06T14:02:17;9.80;;;2.05;;
37781;SDS011;23621;50.878;4.584;2023-08-06T14:04:44;4.85;;;1.73;;
37781;SDS011;23621;50.878;4.584;2023-08-06T14:07:11;6.93;;;1.95;;
37781;SDS011;23621;50.878;4.584;2023-08-06T14:09:38;9.20;;;2.20;;
37781;SDS011;23621;50.878;4.584;2023-08-06T14:12:06;4.43;;;1.95;;
37781;SDS011;23621;50.878;4.584;2023-08-06T14:14:33;7.05;;;2.00;;
37781;SDS011;23621;50.878;4.584;2023-08-06T14:17:00;4.55;;;1.67;;
37781;SDS011;23621;50.878;4.584;2023-08-06T14:19:28;7.20;;;2.30;;
37781;SDS011;23621;50.878;4.584;2023-08-06T14:21:55;5.78;;;2.08;;
37781;SDS011;23621;50.878;4.584;2023-08-06T14:24:22;7.13;;;2.42;;
37781;SDS011;23621;50.878;4.584;2023-08-06T14:26:49;5.93;;;2.10;;
37781;SDS011;23621;50.878;4.584;2023-08-06T14:29:16;7.25;;;2.28;;
37781;SDS011;23621;50.878;4.584;2023-08-06T14:31:43;5.70;;;2.20;;
37781;SDS011;23621;50.878;4.584;2023-08-06T14:34:10;5.95;;;2.22;;
37781;SDS011;23621;50.878;4.584;2023-08-06T14:36:37;7.95;;;2.72;;
37781;SDS011;23621;50.878;4.584;2023-08-06T14:39:03;7.28;;;2.30;;
37781;SDS011;23621;50.878;4.584;2023-08-06T14:41:30;7.35;;;2.30;;
37781;SDS011;23621;50.878;4.584;2023-08-06T14:43:57;6.63;;;2.40;;
37781;SDS011;23621;50.878;4.584;2023-08-06T14:46:25;7.53;;;2.60;;
37781;SDS011;23621;50.878;4.584;2023-08-06T14:48:52;9.23;;;2.72;;
37781;SDS011;23621;50.878;4.584;2023-08-06T14:51:20;9.68;;;2.58;;
37781;SDS011;23621;50.878;4.584;2023-08-06T14:53:47;8.02;;;2.35;;
37781;SDS011;23621;50.878;4.584;2023-08-06T14:56:14;5.65;;;2.20;;
37781;SDS011;23621;50.878;4.584;2023-08-06T14:58:41;12.18;;;3.08;;
37781;SDS011;23621;50.878;4.584;2023-08-06T15:01:08;6.35;;;2.40;;
37781;SDS011;23621;50.878;4.584;2023-08-06T15:03:35;6.65;;;2.47;;
37781;SDS011;23621;50.878;4.584;2023-08-06T15:06:02;7.07;;;2.42;;
37781;SDS011;23621;50.878;4.584;2023-08-06T15:08:29;11.38;;;3.22;;
37781;SDS011;23621;50.878;4.584;2023-08-06T15:10:56;8.63;;;2.80;;
37781;SDS011;23621;50.878;4.584;2023-08-06T15:13:23;6.63;;;2.50;;
37781;SDS011;23621;50.878;4.584;2023-08-06T15:15:50;7.97;;;2.80;;
37781;SDS011;23621;50.878;4.584;2023-08-06T15:18:17;6.25;;;2.10;;
37781;SDS011;23621;50.878;4.584;2023-08-06T15:20:45;6.63;;;2.47;;
37781;SDS011;23621;50.878;4.584;2023-08-06T15:23:12;6.75;;;2.47;;
37781;SDS011;23621;50.878;4.584;2023-08-06T15:25:40;7.35;;;2.45;;
37781;SDS011;23621;50.878;4.584;2023-08-06T15:28:06;5.47;;;2.13;;
37781;SDS011;23621;50.878;4.584;2023-08-06T15:30:33;4.65;;;1.90;;
37781;SDS011;23621;50.878;4.584;2023-08-06T15:33:01;3.78;;;1.67;;
37781;SDS011;23621;50.878;4.584;2023-08-06T15:35:28;6.13;;;1.90;;
37781;SDS011;23621;50.878;4.584;2023-08-06T15:37:55;5.70;;;1.52;;
37781;SDS011;23621;50.878;4.584;2023-08-06T15:40:22;5.43;;;1.95;;
37781;SDS011;23621;50.878;4.584;2023-08-06T15:42:49;8.85;;;1.77;;
37781;SDS011;23621;50.878;4.584;2023-08-06T15:45:16;4.32;;;1.75;;
37781;SDS011;23621;50.878;4.584;2023-08-06T15:47:43;7.22;;;1.70;;
37781;SDS011;23621;50.878;4.584;2023-08-06T15:50:10;4.78;;;1.58;;
37781;SDS011;23621;50.878;4.584;2023-08-06T15:52:37;6.15;;;1.90;;
37781;SDS011;23621;50.878;4.584;2023-08-06T15:55:04;3.85;;;1.70;;
37781;SDS011;23621;50.878;4.584;2023-08-06T15:57:35;4.95;;;1.50;;
37781;SDS011;23621;50.878;4.584;2023-08-06T16:00:03;3.42;;;1.50;;
37781;SDS011;23621;50.878;4.584;2023-08-06T16:02:30;8.55;;;1.65;;
37781;SDS011;23621;50.878;4.584;2023-08-06T16:04:58;6.65;;;2.03;;
37781;SDS011;23621;50.878;4.584;2023-08-06T16:07:25;6.95;;;1.58;;
37781;SDS011;23621;50.878;4.584;2023-08-06T16:09:53;5.47;;;1.77;;
37781;SDS011;23621;50.878;4.584;2023-08-06T16:12:21;9.73;;;2.42;;
37781;SDS011;23621;50.878;4.584;2023-08-06T16:14:48;7.20;;;2.40;;